Whiting Field Naval Air Station North Airport
KNSE : now visible

Airfield :











YOU CAN JOIN US ON...

 
LOGIN :

Register | Disclaimer

   EN    FR    IT 

 









Legend :    VFR   Marginal VFR   IFR   Intensive IFR   Very Intensive IFR
Visi :
Ceiling :
>= 8 km
>= 3000ft
5 to 8 km
1000 to 3000 ft
1500m to 5 km
500 to 1000 ft
800 to 1500m
200 to 500 ft
< 800m
< 200 ft
Symbols :   Thunderstorms  Fog  Heavy snow  Heavy precipitations  Wind > 20 kt






- Airport Elevation : 199 ft


KNSE - Whiting Field Naval Air Station North

CURRENT METAR :
  • 301656Z VRB03KT 10SM SCT038 BKN250 33/23 A3003 RMK SLP153 T03330228

EXPIRED METARs :
  • 301556Z 29003KT 10SM SCT033 BKN250 32/24 A3005 RMK AO2 SLP158 T03220244 $
  • 301456Z VRB03KT 10SM BKN250 32/24 A3004 RMK SLP157 T03170244 51012

TAF TAF KNSE
Valid from the 30 at 15:00 until the 31 at 15:00 UTC


3015/3115 VRB06KT 9999 FEW035 BKN250 QNH2997INS
FM302000 20007KT 9999 VCTS SCT050CB SCT120 BKN250 QNH2994INS
TEMPO 3021/3101 VRB15G25KT 4800 TSRA BKN050CB BKN100
FM310200 24005KT 9999 SCT050 SCT080 SCT150 BKN250 QNH2997INS
FM310700 VRB03KT 9999 FEW050 FEW250 QNH2999INS T36/3020Z T24/3111Z FN20071
KZJX FIR / North America



MET'MAP, your aeronautical weather chart ! - Copyright ORBIFLY December 2007 - Disclaimer

ORBIFLY MET'MAP TEAM :

Programming & Development : Alexandra Zaïnal
Concept & original design : Baudouin d'Aumeries
Assistance for programming : Marc-Olivier Méhu
Technical & hardware support : Manuel Goepfert

Contact : metmap@orbifly.com




SOURCES & CREDITS :

   NOAA       Earth
Advisory